sensor_id;sensor_type;location;lat;lon;timestamp;temperature;humidity
19974;DHT22;10148;47.694;9.442;2022-08-30T00:01:59;19.20;99.90
19974;DHT22;10148;47.694;9.442;2022-08-30T00:04:25;19.10;99.90
19974;DHT22;10148;47.694;9.442;2022-08-30T00:06:51;19.10;99.90
19974;DHT22;10148;47.694;9.442;2022-08-30T00:09:16;19.10;99.90
19974;DHT22;10148;47.694;9.442;2022-08-30T00:11:42;19.10;99.90
19974;DHT22;10148;47.694;9.442;2022-08-30T00:14:07;19.10;99.90
19974;DHT22;10148;47.694;9.442;2022-08-30T00:16:33;19.10;99.90
19974;DHT22;10148;47.694;9.442;2022-08-30T00:18:59;19.10;99.90
19974;DHT22;10148;47.694;9.442;2022-08-30T00:21:26;19.10;99.90
19974;DHT22;10148;47.694;9.442;2022-08-30T00:23:52;19.10;99.90
19974;DHT22;10148;47.694;9.442;2022-08-30T00:26:18;19.10;99.90
19974;DHT22;10148;47.694;9.442;2022-08-30T00:28:43;19.10;99.90
19974;DHT22;10148;47.694;9.442;2022-08-30T00:31:09;19.10;99.90
19974;DHT22;10148;47.694;9.442;2022-08-30T00:33:35;19.10;99.90
19974;DHT22;10148;47.694;9.442;2022-08-30T00:36:01;19.10;99.90
19974;DHT22;10148;47.694;9.442;2022-08-30T00:38:27;19.10;99.90
19974;DHT22;10148;47.694;9.442;2022-08-30T00:40:53;19.00;99.90
19974;DHT22;10148;47.694;9.442;2022-08-30T00:43:25;19.00;99.90
19974;DHT22;10148;47.694;9.442;2022-08-30T00:45:51;19.00;99.90
19974;DHT22;10148;47.694;9.442;2022-08-30T00:48:17;19.00;99.90
19974;DHT22;10148;47.694;9.442;2022-08-30T00:50:46;18.90;99.90
19974;DHT22;10148;47.694;9.442;2022-08-30T00:53:17;18.90;99.90
19974;DHT22;10148;47.694;9.442;2022-08-30T00:55:45;18.80;99.90
19974;DHT22;10148;47.694;9.442;2022-08-30T00:58:14;18.80;99.90
19974;DHT22;10148;47.694;9.442;2022-08-30T01:00:44;18.80;99.90
19974;DHT22;10148;47.694;9.442;2022-08-30T01:03:09;18.70;99.90
19974;DHT22;10148;47.694;9.442;2022-08-30T01:05:37;18.70;99.90
19974;DHT22;10148;47.694;9.442;2022-08-30T01:08:04;18.80;99.90
19974;DHT22;10148;47.694;9.442;2022-08-30T01:10:30;18.80;99.90
19974;DHT22;10148;47.694;9.442;2022-08-30T01:12:57;18.80;99.90
19974;DHT22;10148;47.694;9.442;2022-08-30T01:15:23;18.80;99.90
19974;DHT22;10148;47.694;9.442;2022-08-30T01:17:49;18.70;99.90
19974;DHT22;10148;47.694;9.442;2022-08-30T01:20:19;18.60;99.90
19974;DHT22;10148;47.694;9.442;2022-08-30T01:25:18;18.50;99.90
19974;DHT22;10148;47.694;9.442;2022-08-30T01:28:03;18.50;99.90
19974;DHT22;10148;47.694;9.442;2022-08-30T01:30:29;18.50;99.90
19974;DHT22;10148;47.694;9.442;2022-08-30T01:32:58;18.50;99.90
19974;DHT22;10148;47.694;9.442;2022-08-30T01:35:25;18.40;99.90
19974;DHT22;10148;47.694;9.442;2022-08-30T01:37:51;18.40;99.90
19974;DHT22;10148;47.694;9.442;2022-08-30T01:40:17;18.30;99.90
19974;DHT22;10148;47.694;9.442;2022-08-30T01:42:44;18.20;99.90
19974;DHT22;10148;47.694;9.442;2022-08-30T01:45:10;18.10;99.90
19974;DHT22;10148;47.694;9.442;2022-08-30T01:47:36;18.10;99.90
19974;DHT22;10148;47.694;9.442;2022-08-30T01:50:03;18.00;99.90
19974;DHT22;10148;47.694;9.442;2022-08-30T01:52:28;18.00;99.90
19974;DHT22;10148;47.694;9.442;2022-08-30T01:54:54;18.00;99.90
19974;DHT22;10148;47.694;9.442;2022-08-30T01:57:21;18.00;99.90
19974;DHT22;10148;47.694;9.442;2022-08-30T01:59:48;18.00;99.90
19974;DHT22;10148;47.694;9.442;2022-08-30T02:02:17;18.00;99.90
19974;DHT22;10148;47.694;9.442;2022-08-30T02:04:44;17.90;99.90
19974;DHT22;10148;47.694;9.442;2022-08-30T02:07:11;17.90;99.90
19974;DHT22;10148;47.694;9.442;2022-08-30T02:09:36;17.90;99.90
19974;DHT22;10148;47.694;9.442;2022-08-30T02:12:04;17.90;99.90
19974;DHT22;10148;47.694;9.442;2022-08-30T02:14:32;17.90;99.90
19974;DHT22;10148;47.694;9.442;2022-08-30T02:16:58;17.90;99.90
19974;DHT22;10148;47.694;9.442;2022-08-30T02:19:23;17.90;99.90
19974;DHT22;10148;47.694;9.442;2022-08-30T02:21:49;17.90;99.90
19974;DHT22;10148;47.694;9.442;2022-08-30T02:24:15;17.90;99.90
19974;DHT22;10148;47.694;9.442;2022-08-30T02:26:40;17.90;99.90
19974;DHT22;10148;47.694;9.442;2022-08-30T02:29:07;17.90;99.90
19974;DHT22;10148;47.694;9.442;2022-08-30T02:31:33;17.90;99.90
19974;DHT22;10148;47.694;9.442;2022-08-30T02:33:59;17.80;99.90
19974;DHT22;10148;47.694;9.442;2022-08-30T02:36:25;17.80;99.90
19974;DHT22;10148;47.694;9.442;2022-08-30T02:38:51;17.70;99.90
19974;DHT22;10148;47.694;9.442;2022-08-30T02:41:18;17.70;99.90
19974;DHT22;10148;47.694;9.442;2022-08-30T02:43:44;17.60;99.90
19974;DHT22;10148;47.694;9.442;2022-08-30T02:46:10;17.60;99.90
19974;DHT22;10148;47.694;9.442;2022-08-30T02:48:35;17.60;99.90
19974;DHT22;10148;47.694;9.442;2022-08-30T02:51:08;17.50;99.90
19974;DHT22;10148;47.694;9.442;2022-08-30T02:53:34;17.40;99.90
19974;DHT22;10148;47.694;9.442;2022-08-30T02:56:00;17.30;99.90
19974;DHT22;10148;47.694;9.442;2022-08-30T02:58:25;17.30;99.90
19974;DHT22;10148;47.694;9.442;2022-08-30T03:00:51;17.30;99.90
19974;DHT22;10148;47.694;9.442;2022-08-30T03:03:17;17.30;99.90
19974;DHT22;10148;47.694;9.442;2022-08-30T03:05:42;17.30;99.90
19974;DHT22;10148;47.694;9.442;2022-08-30T03:08:08;17.30;99.90
19974;DHT22;10148;47.694;9.442;2022-08-30T03:10:35;17.30;99.90
19974;DHT22;10148;47.694;9.442;2022-08-30T03:13:01;17.30;99.90
19974;DHT22;10148;47.694;9.442;2022-08-30T03:15:28;17.30;99.90
19974;DHT22;10148;47.694;9.442;2022-08-30T03:17:54;17.30;99.90
19974;DHT22;10148;47.694;9.442;2022-08-30T03:20:21;17.20;99.90
19974;DHT22;10148;47.694;9.442;2022-08-30T03:22:47;17.20;99.90
19974;DHT22;10148;47.694;9.442;2022-08-30T03:25:13;17.20;99.90
19974;DHT22;10148;47.694;9.442;2022-08-30T03:27:39;17.10;99.90
19974;DHT22;10148;47.694;9.442;2022-08-30T03:30:06;17.10;99.90
19974;DHT22;10148;47.694;9.442;2022-08-30T03:32:32;17.10;99.90
19974;DHT22;10148;47.694;9.442;2022-08-30T03:34:57;17.10;99.90
19974;DHT22;10148;47.694;9.442;2022-08-30T03:37:24;17.10;99.90
19974;DHT22;10148;47.694;9.442;2022-08-30T03:39:50;17.00;99.90
19974;DHT22;10148;47.694;9.442;2022-08-30T03:42:16;17.00;99.90
19974;DHT22;10148;47.694;9.442;2022-08-30T03:44:41;17.00;99.90
19974;DHT22;10148;47.694;9.442;2022-08-30T03:47:07;17.00;99.90
19974;DHT22;10148;47.694;9.442;2022-08-30T03:49:32;17.00;99.90
19974;DHT22;10148;47.694;9.442;2022-08-30T03:51:58;17.00;99.90
19974;DHT22;10148;47.694;9.442;2022-08-30T03:54:24;16.90;99.90
19974;DHT22;10148;47.694;9.442;2022-08-30T03:56:49;16.90;99.90
19974;DHT22;10148;47.694;9.442;2022-08-30T03:59:15;16.90;99.90
19974;DHT22;10148;47.694;9.442;2022-08-30T04:01:41;16.80;99.90
19974;DHT22;10148;47.694;9.442;2022-08-30T04:04:07;16.80;99.90
19974;DHT22;10148;47.694;9.442;2022-08-30T04:06:33;16.80;99.90
19974;DHT22;10148;47.694;9.442;2022-08-30T04:08:59;16.70;99.90
19974;DHT22;10148;47.694;9.442;2022-08-30T04:11:25;16.70;99.90
19974;DHT22;10148;47.694;9.442;2022-08-30T04:13:50;16.70;99.90
19974;DHT22;10148;47.694;9.442;2022-08-30T04:16:18;16.70;99.90
19974;DHT22;10148;47.694;9.442;2022-08-30T04:18:44;16.60;99.90
19974;DHT22;10148;47.694;9.442;2022-08-30T04:21:10;16.70;99.90
19974;DHT22;10148;47.694;9.442;2022-08-30T04:23:35;16.60;99.90
19974;DHT22;10148;47.694;9.442;2022-08-30T04:26:01;16.60;99.90
19974;DHT22;10148;47.694;9.442;2022-08-30T04:28:26;16.60;99.90
19974;DHT22;10148;47.694;9.442;2022-08-30T04:30:52;16.60;99.90
19974;DHT22;10148;47.694;9.442;2022-08-30T04:33:18;16.60;99.90
19974;DHT22;10148;47.694;9.442;2022-08-30T04:35:47;16.60;99.90
19974;DHT22;10148;47.694;9.442;2022-08-30T04:38:15;16.60;99.90
19974;DHT22;10148;47.694;9.442;2022-08-30T04:40:42;16.60;99.90
19974;DHT22;10148;47.694;9.442;2022-08-30T04:43:09;16.60;99.90
19974;DHT22;10148;47.694;9.442;2022-08-30T04:45:38;16.60;99.90
19974;DHT22;10148;47.694;9.442;2022-08-30T04:48:05;16.60;99.90
19974;DHT22;10148;47.694;9.442;2022-08-30T04:50:31;16.60;99.90
19974;DHT22;10148;47.694;9.442;2022-08-30T04:52:56;16.50;99.90
19974;DHT22;10148;47.694;9.442;2022-08-30T04:55:22;16.50;99.90
19974;DHT22;10148;47.694;9.442;2022-08-30T04:57:50;16.50;99.90
19974;DHT22;10148;47.694;9.442;2022-08-30T05:00:16;16.50;99.90
19974;DHT22;10148;47.694;9.442;2022-08-30T05:02:42;16.50;99.90
19974;DHT22;10148;47.694;9.442;2022-08-30T05:05:09;16.50;99.90
19974;DHT22;10148;47.694;9.442;2022-08-30T05:07:54;16.50;99.90
19974;DHT22;10148;47.694;9.442;2022-08-30T05:10:19;16.50;99.90
19974;DHT22;10148;47.694;9.442;2022-08-30T05:12:45;16.50;99.90
19974;DHT22;10148;47.694;9.442;2022-08-30T05:15:11;16.60;99.90
19974;DHT22;10148;47.694;9.442;2022-08-30T05:17:37;16.60;99.90
19974;DHT22;10148;47.694;9.442;2022-08-30T05:20:05;16.60;99.90
19974;DHT22;10148;47.694;9.442;2022-08-30T05:22:31;16.60;99.90
19974;DHT22;10148;47.694;9.442;2022-08-30T05:24:58;16.60;99.90
19974;DHT22;10148;47.694;9.442;2022-08-30T05:27:24;16.60;99.90
19974;DHT22;10148;47.694;9.442;2022-08-30T05:29:49;16.70;99.90
19974;DHT22;10148;47.694;9.442;2022-08-30T05:32:15;16.70;99.90
19974;DHT22;10148;47.694;9.442;2022-08-30T05:34:40;16.70;99.90
19974;DHT22;10148;47.694;9.442;2022-08-30T05:37:06;16.80;99.90
19974;DHT22;10148;47.694;9.442;2022-08-30T05:39:31;16.80;99.90
19974;DHT22;10148;47.694;9.442;2022-08-30T05:41:58;16.90;99.90
19974;DHT22;10148;47.694;9.442;2022-08-30T05:44:24;16.90;99.90
19974;DHT22;10148;47.694;9.442;2022-08-30T05:46:49;17.00;99.90
19974;DHT22;10148;47.694;9.442;2022-08-30T05:49:15;17.10;99.90
19974;DHT22;10148;47.694;9.442;2022-08-30T05:51:41;17.20;99.90
19974;DHT22;10148;47.694;9.442;2022-08-30T05:54:06;17.20;99.90
19974;DHT22;10148;47.694;9.442;2022-08-30T05:56:34;17.30;99.90
19974;DHT22;10148;47.694;9.442;2022-08-30T05:59:01;17.40;99.90
19974;DHT22;10148;47.694;9.442;2022-08-30T06:01:34;17.50;99.90
19974;DHT22;10148;47.694;9.442;2022-08-30T06:04:01;17.50;99.90
19974;DHT22;10148;47.694;9.442;2022-08-30T06:06:28;17.70;99.90
19974;DHT22;10148;47.694;9.442;2022-08-30T06:08:54;17.80;99.90
19974;DHT22;10148;47.694;9.442;2022-08-30T06:11:22;17.90;99.90
19974;DHT22;10148;47.694;9.442;2022-08-30T06:13:49;18.00;99.90
19974;DHT22;10148;47.694;9.442;2022-08-30T06:16:17;18.10;99.90
19974;DHT22;10148;47.694;9.442;2022-08-30T06:18:43;18.20;99.90
19974;DHT22;10148;47.694;9.442;2022-08-30T06:21:18;18.20;99.90
19974;DHT22;10148;47.694;9.442;2022-08-30T06:23:44;18.30;99.90
19974;DHT22;10148;47.694;9.442;2022-08-30T06:26:10;18.40;99.90
19974;DHT22;10148;47.694;9.442;2022-08-30T06:28:35;18.40;99.90
19974;DHT22;10148;47.694;9.442;2022-08-30T06:31:05;18.30;99.90
19974;DHT22;10148;47.694;9.442;2022-08-30T06:33:31;18.30;99.90
19974;DHT22;10148;47.694;9.442;2022-08-30T06:36:20;18.30;99.90
19974;DHT22;10148;47.694;9.442;2022-08-30T06:38:48;18.30;99.90
19974;DHT22;10148;47.694;9.442;2022-08-30T06:41:16;18.40;99.90
19974;DHT22;10148;47.694;9.442;2022-08-30T06:43:43;18.40;99.90
19974;DHT22;10148;47.694;9.442;2022-08-30T06:46:12;18.50;99.90
19974;DHT22;10148;47.694;9.442;2022-08-30T06:48:38;18.60;99.90
19974;DHT22;10148;47.694;9.442;2022-08-30T06:51:04;18.70;99.90
19974;DHT22;10148;47.694;9.442;2022-08-30T06:53:30;18.70;99.90
19974;DHT22;10148;47.694;9.442;2022-08-30T06:55:58;18.70;99.90
19974;DHT22;10148;47.694;9.442;2022-08-30T06:58:25;18.80;99.90
19974;DHT22;10148;47.694;9.442;2022-08-30T07:00:51;18.80;99.90
19974;DHT22;10148;47.694;9.442;2022-08-30T07:03:17;18.90;99.90
19974;DHT22;10148;47.694;9.442;2022-08-30T07:05:42;18.90;99.90
19974;DHT22;10148;47.694;9.442;2022-08-30T07:08:08;19.10;99.90
19974;DHT22;10148;47.694;9.442;2022-08-30T07:10:37;19.20;99.90
19974;DHT22;10148;47.694;9.442;2022-08-30T07:13:03;19.30;99.90
19974;DHT22;10148;47.694;9.442;2022-08-30T07:15:28;19.30;99.90
19974;DHT22;10148;47.694;9.442;2022-08-30T07:17:54;19.40;99.90
19974;DHT22;10148;47.694;9.442;2022-08-30T07:20:38;19.50;99.90
19974;DHT22;10148;47.694;9.442;2022-08-30T07:23:03;19.70;99.90
19974;DHT22;10148;47.694;9.442;2022-08-30T07:25:29;19.80;99.90
19974;DHT22;10148;47.694;9.442;2022-08-30T07:27:55;19.90;99.90
19974;DHT22;10148;47.694;9.442;2022-08-30T07:30:21;19.90;99.90
19974;DHT22;10148;47.694;9.442;2022-08-30T07:32:47;20.00;99.90
19974;DHT22;10148;47.694;9.442;2022-08-30T07:35:14;20.10;99.90
19974;DHT22;10148;47.694;9.442;2022-08-30T07:37:39;20.20;99.90
19974;DHT22;10148;47.694;9.442;2022-08-30T07:40:06;20.30;99.90
19974;DHT22;10148;47.694;9.442;2022-08-30T07:42:32;20.50;99.90
19974;DHT22;10148;47.694;9.442;2022-08-30T07:44:57;20.80;99.90
19974;DHT22;10148;47.694;9.442;2022-08-30T07:47:23;20.80;99.90
19974;DHT22;10148;47.694;9.442;2022-08-30T07:49:48;21.00;99.90
19974;DHT22;10148;47.694;9.442;2022-08-30T07:52:14;21.10;99.90
19974;DHT22;10148;47.694;9.442;2022-08-30T07:54:40;21.20;99.90
19974;DHT22;10148;47.694;9.442;2022-08-30T07:57:06;21.30;99.90
19974;DHT22;10148;47.694;9.442;2022-08-30T07:59:31;21.60;99.90
19974;DHT22;10148;47.694;9.442;2022-08-30T08:01:57;21.60;99.90
19974;DHT22;10148;47.694;9.442;2022-08-30T08:04:22;21.50;99.90
19974;DHT22;10148;47.694;9.442;2022-08-30T08:06:48;21.60;99.90
19974;DHT22;10148;47.694;9.442;2022-08-30T08:09:14;21.70;99.90
19974;DHT22;10148;47.694;9.442;2022-08-30T08:11:39;21.80;99.90
19974;DHT22;10148;47.694;9.442;2022-08-30T08:14:06;21.80;99.90
19974;DHT22;10148;47.694;9.442;2022-08-30T08:16:33;21.80;99.90
19974;DHT22;10148;47.694;9.442;2022-08-30T08:18:59;21.80;99.90
19974;DHT22;10148;47.694;9.442;2022-08-30T08:21:26;21.90;99.90
19974;DHT22;10148;47.694;9.442;2022-08-30T08:23:52;21.90;99.90
19974;DHT22;10148;47.694;9.442;2022-08-30T08:26:19;21.90;99.90
19974;DHT22;10148;47.694;9.442;2022-08-30T08:28:45;22.00;99.90
19974;DHT22;10148;47.694;9.442;2022-08-30T08:31:20;22.10;99.90
19974;DHT22;10148;47.694;9.442;2022-08-30T08:33:46;22.20;99.90
19974;DHT22;10148;47.694;9.442;2022-08-30T08:36:13;22.30;99.90
19974;DHT22;10148;47.694;9.442;2022-08-30T08:38:39;22.40;99.90
19974;DHT22;10148;47.694;9.442;2022-08-30T08:43:52;22.50;99.90
19974;DHT22;10148;47.694;9.442;2022-08-30T08:46:26;22.60;99.90
19974;DHT22;10148;47.694;9.442;2022-08-30T08:49:00;22.70;99.90
19974;DHT22;10148;47.694;9.442;2022-08-30T08:51:30;22.80;99.90
19974;DHT22;10148;47.694;9.442;2022-08-30T08:57:04;23.00;99.90
19974;DHT22;10148;47.694;9.442;2022-08-30T08:59:30;23.20;99.90
19974;DHT22;10148;47.694;9.442;2022-08-30T09:02:01;23.30;99.90
19974;DHT22;10148;47.694;9.442;2022-08-30T09:04:35;23.40;99.90
19974;DHT22;10148;47.694;9.442;2022-08-30T09:07:13;23.40;99.90
19974;DHT22;10148;47.694;9.442;2022-08-30T09:09:42;23.50;99.90
19974;DHT22;10148;47.694;9.442;2022-08-30T09:12:09;23.60;99.90
19974;DHT22;10148;47.694;9.442;2022-08-30T09:14:39;23.70;99.90
19974;DHT22;10148;47.694;9.442;2022-08-30T09:17:08;23.80;99.90
19974;DHT22;10148;47.694;9.442;2022-08-30T09:19:42;23.90;99.90
19974;DHT22;10148;47.694;9.442;2022-08-30T09:22:37;24.00;99.90
19974;DHT22;10148;47.694;9.442;2022-08-30T09:25:07;24.00;99.90
19974;DHT22;10148;47.694;9.442;2022-08-30T09:27:39;24.00;99.90
19974;DHT22;10148;47.694;9.442;2022-08-30T09:30:09;24.10;99.90
19974;DHT22;10148;47.694;9.442;2022-08-30T09:32:58;24.20;99.90
19974;DHT22;10148;47.694;9.442;2022-08-30T09:35:44;24.30;99.90
19974;DHT22;10148;47.694;9.442;2022-08-30T09:38:16;24.40;99.90
19974;DHT22;10148;47.694;9.442;2022-08-30T09:40:47;24.50;99.90
19974;DHT22;10148;47.694;9.442;2022-08-30T09:45:44;24.60;99.90
19974;DHT22;10148;47.694;9.442;2022-08-30T09:48:30;24.70;99.90
19974;DHT22;10148;47.694;9.442;2022-08-30T09:53:49;24.90;99.90
19974;DHT22;10148;47.694;9.442;2022-08-30T10:01:52;25.10;99.90
19974;DHT22;10148;47.694;9.442;2022-08-30T10:04:28;24.80;99.90
19974;DHT22;10148;47.694;9.442;2022-08-30T10:25:37;24.60;99.90
19974;DHT22;10148;47.694;9.442;2022-08-30T10:28:13;24.60;99.90
19974;DHT22;10148;47.694;9.442;2022-08-30T10:30:47;24.80;99.90
19974;DHT22;10148;47.694;9.442;2022-08-30T10:33:35;24.90;99.90
19974;DHT22;10148;47.694;9.442;2022-08-30T10:36:06;25.00;99.90
19974;DHT22;10148;47.694;9.442;2022-08-30T10:38:37;25.00;99.90
19974;DHT22;10148;47.694;9.442;2022-08-30T10:41:28;25.20;99.90
19974;DHT22;10148;47.694;9.442;2022-08-30T10:44:01;25.40;99.90
19974;DHT22;10148;47.694;9.442;2022-08-30T10:46:33;25.40;99.90
19974;DHT22;10148;47.694;9.442;2022-08-30T10:49:01;25.30;99.90
19974;DHT22;10148;47.694;9.442;2022-08-30T10:51:35;25.20;99.90
19974;DHT22;10148;47.694;9.442;2022-08-30T10:54:30;25.00;99.90
19974;DHT22;10148;47.694;9.442;2022-08-30T10:56:58;25.00;99.90
19974;DHT22;10148;47.694;9.442;2022-08-30T10:59:24;25.00;99.90
19974;DHT22;10148;47.694;9.442;2022-08-30T11:04:34;24.80;99.90
19974;DHT22;10148;47.694;9.442;2022-08-30T11:07:14;25.00;99.90
19974;DHT22;10148;47.694;9.442;2022-08-30T11:14:54;25.50;99.90
19974;DHT22;10148;47.694;9.442;2022-08-30T11:17:30;25.70;99.90
19974;DHT22;10148;47.694;9.442;2022-08-30T11:19:58;25.80;99.90
19974;DHT22;10148;47.694;9.442;2022-08-30T11:22:29;26.00;99.90
19974;DHT22;10148;47.694;9.442;2022-08-30T11:27:54;26.50;99.90
19974;DHT22;10148;47.694;9.442;2022-08-30T11:35:41;27.10;99.90
19974;DHT22;10148;47.694;9.442;2022-08-30T12:03:26;28.80;99.90
19974;DHT22;10148;47.694;9.442;2022-08-30T12:05:59;28.90;99.90
19974;DHT22;10148;47.694;9.442;2022-08-30T12:11:02;29.30;99.90
19974;DHT22;10148;47.694;9.442;2022-08-30T12:18:46;29.60;99.90
19974;DHT22;10148;47.694;9.442;2022-08-30T12:21:34;29.60;99.90
19974;DHT22;10148;47.694;9.442;2022-08-30T12:26:33;29.80;99.90
19974;DHT22;10148;47.694;9.442;2022-08-30T12:31:47;30.40;99.90
19974;DHT22;10148;47.694;9.442;2022-08-30T12:34:21;30.60;99.90
19974;DHT22;10148;47.694;9.442;2022-08-30T12:39:33;30.60;99.90
19974;DHT22;10148;47.694;9.442;2022-08-30T12:42:18;30.90;99.90
19974;DHT22;10148;47.694;9.442;2022-08-30T12:44:46;31.20;99.90
19974;DHT22;10148;47.694;9.442;2022-08-30T12:47:13;31.20;99.90
19974;DHT22;10148;47.694;9.442;2022-08-30T12:49:42;31.20;99.90
19974;DHT22;10148;47.694;9.442;2022-08-30T12:54:55;30.80;99.90
19974;DHT22;10148;47.694;9.442;2022-08-30T12:57:38;30.60;99.90
19974;DHT22;10148;47.694;9.442;2022-08-30T13:02:55;30.70;99.90
19974;DHT22;10148;47.694;9.442;2022-08-30T13:05:45;30.60;99.90
19974;DHT22;10148;47.694;9.442;2022-08-30T13:10:58;30.10;99.90
19974;DHT22;10148;47.694;9.442;2022-08-30T13:13:41;29.90;99.90
19974;DHT22;10148;47.694;9.442;2022-08-30T13:18:52;30.10;99.90
19974;DHT22;10148;47.694;9.442;2022-08-30T13:21:28;29.90;99.90
19974;DHT22;10148;47.694;9.442;2022-08-30T13:24:04;29.80;99.90
19974;DHT22;10148;47.694;9.442;2022-08-30T13:26:34;29.90;99.90
19974;DHT22;10148;47.694;9.442;2022-08-30T13:29:03;30.00;99.90
19974;DHT22;10148;47.694;9.442;2022-08-30T13:31:29;29.90;99.90
19974;DHT22;10148;47.694;9.442;2022-08-30T13:33:56;29.80;99.90
19974;DHT22;10148;47.694;9.442;2022-08-30T13:36:27;29.70;99.90
19974;DHT22;10148;47.694;9.442;2022-08-30T13:38:53;29.60;99.90
19974;DHT22;10148;47.694;9.442;2022-08-30T13:41:19;29.60;99.90
19974;DHT22;10148;47.694;9.442;2022-08-30T13:43:46;29.50;99.90
19974;DHT22;10148;47.694;9.442;2022-08-30T13:46:13;29.50;99.90
19974;DHT22;10148;47.694;9.442;2022-08-30T13:48:39;29.30;99.90
19974;DHT22;10148;47.694;9.442;2022-08-30T13:51:05;29.30;99.90
19974;DHT22;10148;47.694;9.442;2022-08-30T13:53:30;29.30;99.90
19974;DHT22;10148;47.694;9.442;2022-08-30T13:55:56;29.30;99.90
19974;DHT22;10148;47.694;9.442;2022-08-30T13:58:22;29.20;99.90
19974;DHT22;10148;47.694;9.442;2022-08-30T14:00:47;29.20;99.90
19974;DHT22;10148;47.694;9.442;2022-08-30T14:03:14;29.30;99.90
19974;DHT22;10148;47.694;9.442;2022-08-30T14:05:41;29.30;99.90
19974;DHT22;10148;47.694;9.442;2022-08-30T14:08:07;29.50;99.90
19974;DHT22;10148;47.694;9.442;2022-08-30T14:10:34;29.80;99.90
19974;DHT22;10148;47.694;9.442;2022-08-30T14:13:00;30.20;99.90
19974;DHT22;10148;47.694;9.442;2022-08-30T14:15:26;30.60;99.90
19974;DHT22;10148;47.694;9.442;2022-08-30T14:17:51;31.00;99.90
19974;DHT22;10148;47.694;9.442;2022-08-30T14:20:17;31.30;99.90
19974;DHT22;10148;47.694;9.442;2022-08-30T14:22:43;31.50;99.90
19974;DHT22;10148;47.694;9.442;2022-08-30T14:25:09;31.80;99.90
19974;DHT22;10148;47.694;9.442;2022-08-30T14:27:34;31.90;99.90
19974;DHT22;10148;47.694;9.442;2022-08-30T14:30:00;32.20;99.90
19974;DHT22;10148;47.694;9.442;2022-08-30T14:32:26;32.30;99.90
19974;DHT22;10148;47.694;9.442;2022-08-30T14:34:51;32.30;99.90
19974;DHT22;10148;47.694;9.442;2022-08-30T14:37:17;32.40;99.90
19974;DHT22;10148;47.694;9.442;2022-08-30T14:39:43;32.40;99.90
19974;DHT22;10148;47.694;9.442;2022-08-30T14:42:08;32.40;99.90
19974;DHT22;10148;47.694;9.442;2022-08-30T14:44:36;32.50;99.90
19974;DHT22;10148;47.694;9.442;2022-08-30T14:47:02;32.50;99.90
19974;DHT22;10148;47.694;9.442;2022-08-30T14:49:28;32.50;99.90
19974;DHT22;10148;47.694;9.442;2022-08-30T14:51:54;32.20;99.90
19974;DHT22;10148;47.694;9.442;2022-08-30T14:54:23;31.90;99.90
19974;DHT22;10148;47.694;9.442;2022-08-30T14:56:49;31.60;99.90
19974;DHT22;10148;47.694;9.442;2022-08-30T14:59:15;31.20;99.90
19974;DHT22;10148;47.694;9.442;2022-08-30T15:01:43;31.00;99.90
19974;DHT22;10148;47.694;9.442;2022-08-30T15:04:10;30.90;99.90
19974;DHT22;10148;47.694;9.442;2022-08-30T15:06:37;30.50;99.90
19974;DHT22;10148;47.694;9.442;2022-08-30T15:09:05;30.40;99.90
19974;DHT22;10148;47.694;9.442;2022-08-30T15:11:32;30.30;99.90
19974;DHT22;10148;47.694;9.442;2022-08-30T15:13:57;30.40;99.90
19974;DHT22;10148;47.694;9.442;2022-08-30T15:16:26;30.30;99.90
19974;DHT22;10148;47.694;9.442;2022-08-30T15:18:53;30.30;99.90
19974;DHT22;10148;47.694;9.442;2022-08-30T15:21:30;30.30;99.90
19974;DHT22;10148;47.694;9.442;2022-08-30T15:23:57;30.30;99.90
19974;DHT22;10148;47.694;9.442;2022-08-30T15:26:23;30.40;99.90
19974;DHT22;10148;47.694;9.442;2022-08-30T15:28:50;30.60;99.90
19974;DHT22;10148;47.694;9.442;2022-08-30T15:31:20;30.80;99.90
19974;DHT22;10148;47.694;9.442;2022-08-30T15:33:46;30.80;99.90
19974;DHT22;10148;47.694;9.442;2022-08-30T15:36:12;30.80;99.90
19974;DHT22;10148;47.694;9.442;2022-08-30T15:38:38;30.90;99.90
19974;DHT22;10148;47.694;9.442;2022-08-30T15:41:08;30.90;99.90
19974;DHT22;10148;47.694;9.442;2022-08-30T15:43:35;30.80;99.90
19974;DHT22;10148;47.694;9.442;2022-08-30T15:46:14;30.70;99.90
19974;DHT22;10148;47.694;9.442;2022-08-30T15:48:40;30.50;99.90
19974;DHT22;10148;47.694;9.442;2022-08-30T15:51:06;30.40;99.90
19974;DHT22;10148;47.694;9.442;2022-08-30T15:53:33;30.00;99.90
19974;DHT22;10148;47.694;9.442;2022-08-30T15:55:58;29.50;99.90
19974;DHT22;10148;47.694;9.442;2022-08-30T15:58:24;29.30;99.90
19974;DHT22;10148;47.694;9.442;2022-08-30T16:00:49;29.30;99.90
19974;DHT22;10148;47.694;9.442;2022-08-30T16:03:15;28.90;99.90
19974;DHT22;10148;47.694;9.442;2022-08-30T16:05:41;28.70;99.90
19974;DHT22;10148;47.694;9.442;2022-08-30T16:08:06;28.40;99.90
19974;DHT22;10148;47.694;9.442;2022-08-30T16:10:32;28.20;99.90
19974;DHT22;10148;47.694;9.442;2022-08-30T16:12:57;28.10;99.90
19974;DHT22;10148;47.694;9.442;2022-08-30T16:15:24;28.00;99.90
19974;DHT22;10148;47.694;9.442;2022-08-30T16:17:50;28.00;99.90
19974;DHT22;10148;47.694;9.442;2022-08-30T16:20:16;27.90;99.90
19974;DHT22;10148;47.694;9.442;2022-08-30T16:22:41;27.80;99.90
19974;DHT22;10148;47.694;9.442;2022-08-30T16:25:07;27.70;99.90
19974;DHT22;10148;47.694;9.442;2022-08-30T16:27:33;27.80;99.90
19974;DHT22;10148;47.694;9.442;2022-08-30T16:29:58;27.70;99.90
19974;DHT22;10148;47.694;9.442;2022-08-30T16:32:24;27.60;99.90
19974;DHT22;10148;47.694;9.442;2022-08-30T16:34:50;27.60;99.90
19974;DHT22;10148;47.694;9.442;2022-08-30T16:37:15;27.50;99.90
19974;DHT22;10148;47.694;9.442;2022-08-30T16:39:41;27.50;99.90
19974;DHT22;10148;47.694;9.442;2022-08-30T16:42:06;27.40;99.90
19974;DHT22;10148;47.694;9.442;2022-08-30T16:44:32;27.30;99.90
19974;DHT22;10148;47.694;9.442;2022-08-30T16:46:58;27.20;99.90
19974;DHT22;10148;47.694;9.442;2022-08-30T16:49:23;27.10;99.90
19974;DHT22;10148;47.694;9.442;2022-08-30T16:51:49;26.90;99.90
19974;DHT22;10148;47.694;9.442;2022-08-30T16:54:15;26.80;99.90
19974;DHT22;10148;47.694;9.442;2022-08-30T16:56:42;26.80;99.90
19974;DHT22;10148;47.694;9.442;2022-08-30T16:59:07;26.70;99.90
19974;DHT22;10148;47.694;9.442;2022-08-30T17:01:34;26.70;99.90
19974;DHT22;10148;47.694;9.442;2022-08-30T17:04:02;26.70;99.90
19974;DHT22;10148;47.694;9.442;2022-08-30T17:06:28;26.60;99.90
19974;DHT22;10148;47.694;9.442;2022-08-30T17:08:54;26.50;99.90
19974;DHT22;10148;47.694;9.442;2022-08-30T17:11:20;26.50;99.90
19974;DHT22;10148;47.694;9.442;2022-08-30T17:13:45;26.40;99.90
19974;DHT22;10148;47.694;9.442;2022-08-30T17:16:11;26.20;99.90
19974;DHT22;10148;47.694;9.442;2022-08-30T17:18:37;26.10;99.90
19974;DHT22;10148;47.694;9.442;2022-08-30T17:21:03;26.00;99.90